Stations météo

réclame
Mon MeteoGroup
Cassley, Grande-Bretagne (99003): Température de l'air & dewpoint: 18.10.2017 04:00:00 - 24.10.2017 04:00:00 (BST)Cassley, Grande-Bretagne (99003): Quantités de précipitations: 18.10.2017 04:00:00 - 24.10.2017 04:00:00 (BST)
Date & Time tt [°C] td [°C] rr [mm]
24.10.2017 04:00:00 9,8 7,5 0,0
24.10.2017 03:00:00 9,4 5,8 0,0
24.10.2017 02:00:00 - - 0,0
24.10.2017 01:00:00 11,5 5,2 0,0
24.10.2017 00:00:00 6,6 4,9 0,0
23.10.2017 23:00:00 8,1 5,5 0,0
23.10.2017 22:00:00 11,1 5,8 0,0
23.10.2017 21:00:00 11,0 5,2 0,0
23.10.2017 20:00:00 11,4 6,1 0,0
23.10.2017 19:00:00 11,7 5,6 0,0
23.10.2017 18:00:00 12,2 6,6 0,0
23.10.2017 17:00:00 12,4 8,8 0,2
23.10.2017 16:00:00 12,6 9,8 0,0
23.10.2017 15:00:00 12,9 9,5 0,0
23.10.2017 14:00:00 12,4 11,6 0,0
23.10.2017 13:00:00 11,7 10,9 0,6
23.10.2017 12:00:00 10,8 10,0 0,2
23.10.2017 11:00:00 - - 0,0
23.10.2017 10:00:00 - - -
23.10.2017 09:00:00 - - -
23.10.2017 08:00:00 - - -
23.10.2017 07:00:00 - - -
23.10.2017 06:00:00 - - -
23.10.2017 05:00:00 5,8 5,0 0,0
23.10.2017 04:00:00 5,5 4,8 0,0
23.10.2017 03:00:00 5,4 4,6 -
23.10.2017 02:00:00 6,1 4,5 0,0
23.10.2017 01:00:00 6,4 5,1 0,0
23.10.2017 00:00:00 5,7 4,6 0,0
22.10.2017 23:00:00 7,0 6,0 0,0
22.10.2017 22:00:00 8,4 7,4 0,2
22.10.2017 21:00:00 8,3 7,5 0,0
22.10.2017 20:00:00 8,9 7,9 -
22.10.2017 19:00:00 8,9 7,7 0,0
22.10.2017 18:00:00 9,2 7,8 0,0
22.10.2017 17:00:00 10,5 9,1 0,0
22.10.2017 16:00:00 11,3 9,9 0,0
22.10.2017 15:00:00 11,0 9,9 2,6
22.10.2017 14:00:00 12,6 9,2 0,0
22.10.2017 13:00:00 12,6 8,9 0,0
22.10.2017 12:00:00 12,3 9,3 0,0
22.10.2017 11:00:00 11,6 9,9 0,0
22.10.2017 10:00:00 10,0 9,5 0,0
22.10.2017 09:00:00 9,0 8,4 0,0
22.10.2017 08:00:00 8,9 8,3 0,0
22.10.2017 07:00:00 9,3 9,0 0,0
22.10.2017 06:00:00 8,2 7,7 0,0
22.10.2017 05:00:00 - - 0,0
22.10.2017 04:00:00 9,6 9,3 -
22.10.2017 03:00:00 9,4 9,1 0,0
22.10.2017 02:00:00 9,8 9,4 0,0
22.10.2017 01:00:00 10,1 9,8 0,0
22.10.2017 00:00:00 10,1 9,6 0,0
21.10.2017 23:00:00 10,3 9,5 0,0
21.10.2017 22:00:00 10,3 9,6 0,0
21.10.2017 21:00:00 9,9 9,2 0,0
21.10.2017 20:00:00 9,9 9,2 0,0
21.10.2017 19:00:00 9,4 8,6 0,0
21.10.2017 18:00:00 10,5 9,1 0,0
21.10.2017 17:00:00 11,9 9,9 0,0
21.10.2017 16:00:00 12,6 9,8 0,0
21.10.2017 15:00:00 12,8 9,8 0,0
21.10.2017 14:00:00 12,6 9,8 0,0
21.10.2017 13:00:00 12,5 10,6 0,0
21.10.2017 12:00:00 11,6 10,2 0,0
21.10.2017 11:00:00 11,0 10,1 0,0
21.10.2017 10:00:00 10,6 9,9 0,0
21.10.2017 09:00:00 10,2 9,8 0,0
21.10.2017 08:00:00 9,5 8,8 0,2
21.10.2017 07:00:00 - - -
21.10.2017 06:00:00 - - -
21.10.2017 05:00:00 - - -
21.10.2017 04:00:00 - - -
21.10.2017 03:00:00 - - -
21.10.2017 02:00:00 - - -
21.10.2017 01:00:00 - - -
21.10.2017 00:00:00 - - -
20.10.2017 23:00:00 - - -
20.10.2017 22:00:00 - - -
20.10.2017 21:00:00 - - 0,0
20.10.2017 20:00:00 11,3 10,9 0,0
20.10.2017 19:00:00 11,5 11,0 0,0
20.10.2017 18:00:00 11,5 11,0 0,0
20.10.2017 17:00:00 11,3 10,8 0,0
20.10.2017 16:00:00 11,8 11,1 0,2
20.10.2017 15:00:00 12,2 11,4 0,0
20.10.2017 14:00:00 11,8 11,6 0,0
20.10.2017 13:00:00 - - 0,0
20.10.2017 12:00:00 - - 0,0
20.10.2017 11:00:00 11,8 10,7 0,0
20.10.2017 10:00:00 11,5 10,9 0,0
20.10.2017 09:00:00 11,2 10,6 0,0
20.10.2017 08:00:00 11,0 10,4 0,0
20.10.2017 07:00:00 10,0 9,9 0,0
20.10.2017 06:00:00 9,7 9,6 0,0
20.10.2017 05:00:00 9,5 9,3 0,2
20.10.2017 04:00:00 10,1 9,9 0,2
20.10.2017 03:00:00 10,4 10,2 0,6
20.10.2017 02:00:00 10,5 10,3 1,0
20.10.2017 01:00:00 10,7 10,3 1,0
20.10.2017 00:00:00 10,9 10,5 0,6
19.10.2017 23:00:00 11,1 10,7 0,2
19.10.2017 22:00:00 11,0 10,5 0,4
19.10.2017 21:00:00 11,0 10,3 0,0
19.10.2017 20:00:00 11,4 10,4 0,0
19.10.2017 19:00:00 11,6 10,5 0,0
19.10.2017 18:00:00 11,6 10,3 0,0
19.10.2017 17:00:00 12,3 10,6 0,0
19.10.2017 16:00:00 12,4 10,5 0,0
19.10.2017 15:00:00 12,6 10,4 0,0
19.10.2017 14:00:00 12,1 10,0 0,0
19.10.2017 13:00:00 11,9 10,1 0,0
19.10.2017 12:00:00 11,7 9,9 0,0
19.10.2017 11:00:00 11,4 9,7 0,0
19.10.2017 10:00:00 10,9 9,2 0,0
19.10.2017 09:00:00 10,4 9,0 0,0
19.10.2017 08:00:00 9,9 8,6 0,0
19.10.2017 07:00:00 8,9 8,0 0,0
19.10.2017 06:00:00 8,0 7,0 0,0
19.10.2017 05:00:00 7,8 6,8 0,0
19.10.2017 04:00:00 7,6 6,5 0,0
19.10.2017 03:00:00 7,6 6,2 0,0
19.10.2017 02:00:00 7,2 6,3 0,0
19.10.2017 01:00:00 7,5 6,1 0,0
19.10.2017 00:00:00 8,1 6,7 0,0
18.10.2017 23:00:00 8,1 6,8 0,0
18.10.2017 22:00:00 8,1 6,6 0,0
18.10.2017 21:00:00 8,2 6,7 0,0
18.10.2017 20:00:00 8,5 6,9 0,0
18.10.2017 19:00:00 8,5 7,2 0,0
18.10.2017 18:00:00 8,5 6,9 0,0
18.10.2017 17:00:00 8,9 7,0 0,0
18.10.2017 16:00:00 9,5 6,2 0,0
18.10.2017 15:00:00 9,5 6,3 0,0
18.10.2017 14:00:00 9,1 6,8 0,0
18.10.2017 13:00:00 11,1 5,8 0,0
18.10.2017 12:00:00 9,0 7,2 0,0
18.10.2017 11:00:00 7,3 6,2 0,0
18.10.2017 10:00:00 6,1 5,5 0,0
18.10.2017 09:00:00 5,4 4,9 0,0
18.10.2017 08:00:00 4,9 4,2 0,0
18.10.2017 07:00:00 5,2 4,3 0,0
18.10.2017 06:00:00 4,7 4,2 0,0
18.10.2017 05:00:00 4,6 4,0 0,0
18.10.2017 04:00:00 4,1 3,2 0,0

tt = Température de l'air
td = dewpoint
rr = Quantités de précipitations

stations d'obs. à proximité